CYYHCYGT

Guest
Details From CYYH - TALOYOAK
To CYGT - Igloolik
Flight Number -
Tags generated
Created
Modified
Stats Distance 258 nm / 478 km
Max Altitude 27,200 ft / 8,291 m
Waypoints 4
Social Downloads 0
Likes 0
Share VATSIM

Download

Looking for another format? Having issues loading an existing format? Contact us
Advertisement - Login to hide

Notes

Basic altitude profile: - Ascent Rate: 300ft/min - Ascent Speed: 120kts - Cruise Altitude: 3000ft - Cruise Speed: 160kts - Descent Rate: 600ft/min - Descent Speed: 160kts Options: - Use NATs: no - Use PACOTS: no - Use low airways: no - Use high airways: no

Route

CYYH 7000N09000W 7000N08500W CYGT

ID Type Via Altitude Latitude Longitude Leg Dist Tot Dist Heading (true) Name
O CYYH APT - 0 ft / 0 m 69.54611˚ -93.57611˚ - 0 nm - TALOYOAK
7000N09000W LATLON - 27,200 ft / 8,291 m 70.00000˚ -90.00000˚ 79 nm 79 nm 68° / 72° -
7000N08500W LATLON - 15,400 ft / 4,694 m 70.00000˚ -85.00000˚ 102 nm 181 nm 88° / 92° -
O CYGT APT - 0 ft / 0 m 69.36482˚ -81.81709˚ 76 nm 258 nm 118° / 121° Igloolik

Altitude Profile

Advertisement - Login to hide

Weather


0- 5 10 15 20 25 30 35+ Temperature / ° C

Clouds and Precipitation
Forecast for 2017-12-15 00:00 UTC. Updated an hour ago

Ground ~20,000 ft ~40,000 ft Winds

CYYH

Details ICAO CYYH (YYH)
Name TALOYOAK
Region Canada
Timezone America/Cambridge_Bay (UTC-7.0)
Stats Elevation 92 ft / 28 m (AMSL)
Location 69.546111° -93.576113°
Runways 1
Magnetic Variation 12.544° W

METAR

CYYH 142000Z 05005KT 10SM -SN OVC019 M20/M23 A3010 RMK SC8 WND ESTD SLP200

Decode

TAF

TAF AMD CYYH 141907Z 1419/1506 05005KT P6SM -SN OVC025 TEMPO 1419/1506 3SM -SN OVC020 BECMG 1423/1501 20007KT RMK NXT FCST BY 150000Z

Decode

Departure Runways

ID Width Length Bearing (true) Bearing (mag) Surface Threshold Offset Overrun Length
15T 100 ft / 30 m 4,008 ft / 1,222 m 151.85° 164.39° Gravel 0 ft / 0 m 0 ft / 0 m
33T 100 ft / 30 m 4,008 ft / 1,222 m 331.87° 344.41° Gravel 0 ft / 0 m 0 ft / 0 m

CYGT

Details ICAO CYGT (YGT)
Name Igloolik
Region Canada
Timezone America/Iqaluit (UTC-5.0)
Stats Elevation 98 ft / 30 m (AMSL)
Location 69.364817° -81.817087°
Runways 1
Magnetic Variation 27.869° W

METAR

CYGT 142000Z 29004KT 8SM -SN BKN038 M17/M19 A3003 RMK SC7 SLP178

Decode

TAF

TAF CYGT 141838Z 1419/1422 30007KT P6SM BKN030 OVC080 TEMPO 1419/1422 5SM -SN BKN015 OVC030 RMK NXT FCST WILL BE ISSUED AT 151245Z

Decode

Destination Runways

ID Width Length Bearing (true) Bearing (mag) Surface Threshold Offset Overrun Length
15 98 ft / 30 m 4,502 ft / 1,372 m 145.64° 173.51° Dirt 0 ft / 0 m 0 ft / 0 m
33 98 ft / 30 m 4,502 ft / 1,372 m 325.65° 353.52° Dirt 0 ft / 0 m 0 ft / 0 m

Popular Alternatives